sensor_id;sensor_type;location;lat;lon;timestamp;pressure;altitude;pressure_sealevel;temperature;humidity
2401;BME280;1211;43.200;27.914;2023-03-16T00:01:18;96895.91;;;-8.35;nan
2401;BME280;1211;43.200;27.914;2023-03-16T00:03:45;97097.69;;;-6.82;nan
2401;BME280;1211;43.200;27.914;2023-03-16T00:06:13;97234.69;;;-5.96;nan
2401;BME280;1211;43.200;27.914;2023-03-16T00:08:40;97387.91;;;-5.01;nan
2401;BME280;1211;43.200;27.914;2023-03-16T00:16:00;97630.44;;;-3.56;nan
2401;BME280;1211;43.200;27.914;2023-03-16T00:18:28;97495.09;;;-4.08;nan
2401;BME280;1211;43.200;27.914;2023-03-16T00:20:56;96269.00;;;-12.33;nan
2401;BME280;1211;43.200;27.914;2023-03-16T00:23:25;97878.59;;;-2.15;nan
2401;BME280;1211;43.200;27.914;2023-03-16T00:25:52;97826.75;;;-1.95;nan
2401;BME280;1211;43.200;27.914;2023-03-16T00:28:19;96123.88;;;-12.49;nan
2401;BME280;1211;43.200;27.914;2023-03-16T00:35:39;94930.78;;;-20.98;nan
2401;BME280;1211;43.200;27.914;2023-03-16T00:38:14;96815.53;;;-8.42;nan
2401;BME280;1211;43.200;27.914;2023-03-16T00:45:35;97000.47;;;-7.53;nan
2401;BME280;1211;43.200;27.914;2023-03-16T00:50:28;97400.75;;;-4.81;nan
2401;BME280;1211;43.200;27.914;2023-03-16T00:52:55;97226.78;;;-5.53;nan
2401;BME280;1211;43.200;27.914;2023-03-16T00:57:48;97627.69;;;-3.08;nan
2401;BME280;1211;43.200;27.914;2023-03-16T01:00:15;97982.91;;;-1.16;nan
2401;BME280;1211;43.200;27.914;2023-03-16T01:02:46;97919.25;;;-1.34;nan
2401;BME280;1211;43.200;27.914;2023-03-16T01:05:13;97764.44;;;-2.36;nan
2401;BME280;1211;43.200;27.914;2023-03-16T01:07:40;97954.91;;;-0.94;nan
2401;BME280;1211;43.200;27.914;2023-03-16T01:10:09;97950.94;;;-0.97;nan
2401;BME280;1211;43.200;27.914;2023-03-16T01:12:36;97952.72;;;-1.27;nan
2401;BME280;1211;43.200;27.914;2023-03-16T01:15:03;97988.78;;;-1.22;nan
2401;BME280;1211;43.200;27.914;2023-03-16T01:17:31;97747.13;;;-2.53;nan
2401;BME280;1211;43.200;27.914;2023-03-16T01:20:00;97674.13;;;-2.77;nan
2401;BME280;1211;43.200;27.914;2023-03-16T01:22:29;97792.66;;;-2.25;nan
2401;BME280;1211;43.200;27.914;2023-03-16T01:24:57;97770.94;;;-2.12;nan
2401;BME280;1211;43.200;27.914;2023-03-16T01:27:24;97842.75;;;-1.90;nan
2401;BME280;1211;43.200;27.914;2023-03-16T01:29:51;97853.88;;;-1.91;nan
2401;BME280;1211;43.200;27.914;2023-03-16T01:32:18;97576.09;;;-4.32;nan
2401;BME280;1211;43.200;27.914;2023-03-16T01:34:47;98323.13;;;0.96;nan
2401;BME280;1211;43.200;27.914;2023-03-16T01:37:16;98199.38;;;0.24;nan
2401;BME280;1211;43.200;27.914;2023-03-16T01:39:43;98124.44;;;-0.48;nan
2401;BME280;1211;43.200;27.914;2023-03-16T01:42:09;97995.13;;;-1.27;nan
2401;BME280;1211;43.200;27.914;2023-03-16T01:44:49;97781.06;;;-2.60;nan
2401;BME280;1211;43.200;27.914;2023-03-16T01:47:16;98309.50;;;0.66;nan
2401;BME280;1211;43.200;27.914;2023-03-16T01:49:43;98346.09;;;0.90;nan
2401;BME280;1211;43.200;27.914;2023-03-16T01:52:12;98322.38;;;0.78;nan
2401;BME280;1211;43.200;27.914;2023-03-16T01:54:42;98091.72;;;-0.81;nan
2401;BME280;1211;43.200;27.914;2023-03-16T01:57:11;98262.44;;;0.33;nan
2401;BME280;1211;43.200;27.914;2023-03-16T01:59:40;98117.44;;;-0.66;nan
2401;BME280;1211;43.200;27.914;2023-03-16T02:02:08;98145.13;;;-0.52;nan
2401;BME280;1211;43.200;27.914;2023-03-16T02:04:37;97900.53;;;-1.91;nan
2401;BME280;1211;43.200;27.914;2023-03-16T02:07:06;98037.84;;;-1.12;nan
2401;BME280;1211;43.200;27.914;2023-03-16T02:09:33;97958.44;;;-1.62;nan
2401;BME280;1211;43.200;27.914;2023-03-16T02:12:03;98096.16;;;-0.76;nan
2401;BME280;1211;43.200;27.914;2023-03-16T02:14:30;97939.22;;;-1.87;nan
2401;BME280;1211;43.200;27.914;2023-03-16T02:16:57;98021.00;;;-1.35;nan
2401;BME280;1211;43.200;27.914;2023-03-16T02:19:27;97712.66;;;-3.24;nan
2401;BME280;1211;43.200;27.914;2023-03-16T02:21:57;97779.69;;;-2.97;nan
2401;BME280;1211;43.200;27.914;2023-03-16T02:24:27;98077.41;;;-1.16;nan
2401;BME280;1211;43.200;27.914;2023-03-16T02:26:54;98150.81;;;-0.79;nan
2401;BME280;1211;43.200;27.914;2023-03-16T02:29:25;98133.31;;;-0.73;nan
2401;BME280;1211;43.200;27.914;2023-03-16T02:31:57;98283.63;;;0.05;nan
2401;BME280;1211;43.200;27.914;2023-03-16T02:34:26;98044.19;;;-1.34;nan
2401;BME280;1211;43.200;27.914;2023-03-16T02:36:54;98372.09;;;0.73;nan
2401;BME280;1211;43.200;27.914;2023-03-16T02:39:22;98302.38;;;0.19;nan
2401;BME280;1211;43.200;27.914;2023-03-16T02:41:49;98373.84;;;0.69;nan
2401;BME280;1211;43.200;27.914;2023-03-16T02:44:16;98230.63;;;-0.22;nan
2401;BME280;1211;43.200;27.914;2023-03-16T02:46:48;97834.91;;;-3.08;nan
2401;BME280;1211;43.200;27.914;2023-03-16T02:49:18;97802.78;;;-3.66;nan
2401;BME280;1211;43.200;27.914;2023-03-16T02:51:47;98127.34;;;-1.84;nan
2401;BME280;1211;43.200;27.914;2023-03-16T02:54:13;96591.31;;;-11.48;nan
2401;BME280;1211;43.200;27.914;2023-03-16T02:56:40;97920.34;;;-2.52;nan
2401;BME280;1211;43.200;27.914;2023-03-16T02:59:07;96586.22;;;-10.66;nan
2401;BME280;1211;43.200;27.914;2023-03-16T03:01:34;96779.31;;;-9.56;nan
2401;BME280;1211;43.200;27.914;2023-03-16T03:04:00;97742.53;;;-3.96;nan
2401;BME280;1211;43.200;27.914;2023-03-16T03:06:29;97367.34;;;-6.12;nan
2401;BME280;1211;43.200;27.914;2023-03-16T03:08:56;97042.84;;;-7.96;nan
2401;BME280;1211;43.200;27.914;2023-03-16T03:11:23;97873.22;;;-3.11;nan
2401;BME280;1211;43.200;27.914;2023-03-16T03:13:50;97824.41;;;-3.18;nan
2401;BME280;1211;43.200;27.914;2023-03-16T03:16:17;98028.16;;;-2.35;nan
2401;BME280;1211;43.200;27.914;2023-03-16T03:18:44;98090.22;;;-1.87;nan
2401;BME280;1211;43.200;27.914;2023-03-16T03:21:10;98454.28;;;0.77;nan
2401;BME280;1211;43.200;27.914;2023-03-16T03:23:38;98297.56;;;-0.45;nan
2401;BME280;1211;43.200;27.914;2023-03-16T03:26:05;98206.69;;;-1.06;nan
2401;BME280;1211;43.200;27.914;2023-03-16T03:28:32;97826.09;;;-3.00;nan
2401;BME280;1211;43.200;27.914;2023-03-16T03:30:59;98083.09;;;-1.26;nan
2401;BME280;1211;43.200;27.914;2023-03-16T03:33:26;97857.75;;;-2.49;nan
2401;BME280;1211;43.200;27.914;2023-03-16T03:35:55;98009.25;;;-1.56;nan
2401;BME280;1211;43.200;27.914;2023-03-16T03:38:22;97688.97;;;-3.53;nan
2401;BME280;1211;43.200;27.914;2023-03-16T03:40:51;97128.19;;;-7.05;nan
2401;BME280;1211;43.200;27.914;2023-03-16T03:45:44;97936.00;;;-2.06;nan
2401;BME280;1211;43.200;27.914;2023-03-16T03:48:11;97769.00;;;-3.19;nan
2401;BME280;1211;43.200;27.914;2023-03-16T03:50:37;97972.84;;;-1.93;nan
2401;BME280;1211;43.200;27.914;2023-03-16T03:53:04;98671.34;;;2.31;nan
2401;BME280;1211;43.200;27.914;2023-03-16T03:55:31;98200.72;;;-0.51;nan
2401;BME280;1211;43.200;27.914;2023-03-16T03:57:59;98120.63;;;-0.99;nan
2401;BME280;1211;43.200;27.914;2023-03-16T04:00:26;98426.41;;;0.86;nan
2401;BME280;1211;43.200;27.914;2023-03-16T04:02:53;98131.88;;;-0.97;nan
2401;BME280;1211;43.200;27.914;2023-03-16T04:05:19;98703.75;;;2.44;nan
2401;BME280;1211;43.200;27.914;2023-03-16T04:07:46;98846.78;;;3.21;nan
2401;BME280;1211;43.200;27.914;2023-03-16T04:10:14;98744.63;;;2.57;nan
2401;BME280;1211;43.200;27.914;2023-03-16T04:12:41;98211.84;;;-0.78;nan
2401;BME280;1211;43.200;27.914;2023-03-16T04:15:10;96836.38;;;-9.48;nan
2401;BME280;1211;43.200;27.914;2023-03-16T04:17:37;96601.22;;;-11.21;nan
2401;BME280;1211;43.200;27.914;2023-03-16T04:20:04;97775.63;;;-3.56;nan
2401;BME280;1211;43.200;27.914;2023-03-16T04:22:35;97241.75;;;-7.16;nan
2401;BME280;1211;43.200;27.914;2023-03-16T04:25:02;97663.75;;;-4.59;nan
2401;BME280;1211;43.200;27.914;2023-03-16T04:27:29;97827.31;;;-3.37;nan
2401;BME280;1211;43.200;27.914;2023-03-16T04:30:00;97813.91;;;-3.59;nan
2401;BME280;1211;43.200;27.914;2023-03-16T04:32:28;98100.84;;;-2.21;nan
2401;BME280;1211;43.200;27.914;2023-03-16T04:35:00;98283.38;;;-0.67;nan
2401;BME280;1211;43.200;27.914;2023-03-16T04:37:26;98247.06;;;-0.92;nan
2401;BME280;1211;43.200;27.914;2023-03-16T04:39:53;98110.13;;;-1.74;nan
2401;BME280;1211;43.200;27.914;2023-03-16T05:01:00;122145.50;;;147.45;100.00
2401;BME280;1211;43.200;27.914;2023-03-16T05:03:27;121311.13;;;142.09;100.00
2401;BME280;1211;43.200;27.914;2023-03-16T05:05:54;121300.88;;;142.20;100.00
2401;BME280;1211;43.200;27.914;2023-03-16T05:08:21;121123.31;;;140.97;100.00
2401;BME280;1211;43.200;27.914;2023-03-16T05:10:48;121355.25;;;142.39;100.00
2401;BME280;1211;43.200;27.914;2023-03-16T05:13:15;121445.50;;;142.71;100.00
2401;BME280;1211;43.200;27.914;2023-03-16T05:15:42;121522.44;;;143.36;100.00
2401;BME280;1211;43.200;27.914;2023-03-16T05:18:10;121535.09;;;143.44;100.00
2401;BME280;1211;43.200;27.914;2023-03-16T05:20:37;121476.78;;;142.78;100.00
2401;BME280;1211;43.200;27.914;2023-03-16T05:23:03;121516.72;;;143.00;100.00
2401;BME280;1211;43.200;27.914;2023-03-16T05:25:32;121157.72;;;141.07;100.00
2401;BME280;1211;43.200;27.914;2023-03-16T05:27:59;120519.63;;;136.83;100.00
2401;BME280;1211;43.200;27.914;2023-03-16T05:30:26;121140.13;;;140.40;100.00
2401;BME280;1211;43.200;27.914;2023-03-16T05:32:53;120465.97;;;136.64;100.00
2401;BME280;1211;43.200;27.914;2023-03-16T05:35:23;120688.16;;;137.52;100.00
2401;BME280;1211;43.200;27.914;2023-03-16T05:37:50;122389.13;;;148.67;100.00
2401;BME280;1211;43.200;27.914;2023-03-16T05:40:17;122285.59;;;147.70;100.00
2401;BME280;1211;43.200;27.914;2023-03-16T05:42:47;122430.44;;;148.48;100.00
2401;BME280;1211;43.200;27.914;2023-03-16T05:45:15;122294.69;;;147.71;100.00
2401;BME280;1211;43.200;27.914;2023-03-16T05:47:42;122307.75;;;147.97;100.00
2401;BME280;1211;43.200;27.914;2023-03-16T05:50:09;122046.19;;;146.07;100.00
2401;BME280;1211;43.200;27.914;2023-03-16T05:52:38;121457.66;;;142.40;100.00
2401;BME280;1211;43.200;27.914;2023-03-16T05:55:06;122372.72;;;147.63;100.00
2401;BME280;1211;43.200;27.914;2023-03-16T05:57:33;122244.56;;;147.00;100.00
2401;BME280;1211;43.200;27.914;2023-03-16T06:00:00;121707.97;;;143.66;100.00
2401;BME280;1211;43.200;27.914;2023-03-16T06:02:35;120176.47;;;134.10;100.00
2401;BME280;1211;43.200;27.914;2023-03-16T06:07:28;121502.34;;;142.30;nan
2401;BME280;1211;43.200;27.914;2023-03-16T06:09:57;121101.41;;;139.72;nan
2401;BME280;1211;43.200;27.914;2023-03-16T06:12:23;120844.44;;;138.38;nan
2401;BME280;1211;43.200;27.914;2023-03-16T06:14:50;121481.41;;;142.38;nan
2401;BME280;1211;43.200;27.914;2023-03-16T06:17:17;122197.81;;;146.87;nan
2401;BME280;1211;43.200;27.914;2023-03-16T06:19:44;121973.44;;;145.77;nan
2401;BME280;1211;43.200;27.914;2023-03-16T06:22:10;121777.63;;;144.43;nan
2401;BME280;1211;43.200;27.914;2023-03-16T06:24:37;121641.78;;;143.63;nan
2401;BME280;1211;43.200;27.914;2023-03-16T06:27:05;121601.63;;;143.35;nan
2401;BME280;1211;43.200;27.914;2023-03-16T06:29:32;121721.03;;;143.53;nan
2401;BME280;1211;43.200;27.914;2023-03-16T06:31:59;120839.16;;;138.20;nan
2401;BME280;1211;43.200;27.914;2023-03-16T06:34:26;121686.59;;;143.44;nan
2401;BME280;1211;43.200;27.914;2023-03-16T06:36:52;121093.59;;;139.76;nan
2401;BME280;1211;43.200;27.914;2023-03-16T06:39:19;121801.22;;;143.93;nan
2401;BME280;1211;43.200;27.914;2023-03-16T06:41:46;121659.22;;;142.96;nan
2401;BME280;1211;43.200;27.914;2023-03-16T06:44:15;121928.81;;;145.29;nan
2401;BME280;1211;43.200;27.914;2023-03-16T06:46:41;122088.66;;;146.12;nan
2401;BME280;1211;43.200;27.914;2023-03-16T06:49:08;122137.75;;;146.57;nan
2401;BME280;1211;43.200;27.914;2023-03-16T06:51:35;122088.53;;;146.21;nan
2401;BME280;1211;43.200;27.914;2023-03-16T06:54:02;122009.81;;;145.53;nan
2401;BME280;1211;43.200;27.914;2023-03-16T06:56:28;121995.69;;;144.71;nan
2401;BME280;1211;43.200;27.914;2023-03-16T06:58:56;122365.03;;;147.71;nan
2401;BME280;1211;43.200;27.914;2023-03-16T07:01:24;122197.41;;;146.61;nan
2401;BME280;1211;43.200;27.914;2023-03-16T07:03:50;122405.69;;;147.55;nan
2401;BME280;1211;43.200;27.914;2023-03-16T07:06:18;122252.13;;;146.70;nan
2401;BME280;1211;43.200;27.914;2023-03-16T07:08:45;121793.09;;;143.56;nan
2401;BME280;1211;43.200;27.914;2023-03-16T07:11:12;122843.44;;;150.13;nan
2401;BME280;1211;43.200;27.914;2023-03-16T07:13:39;121876.00;;;144.46;nan
2401;BME280;1211;43.200;27.914;2023-03-16T07:16:06;122879.66;;;150.70;nan
2401;BME280;1211;43.200;27.914;2023-03-16T07:18:35;122071.94;;;145.80;nan
2401;BME280;1211;43.200;27.914;2023-03-16T07:21:04;121982.88;;;145.21;nan
2401;BME280;1211;43.200;27.914;2023-03-16T07:23:30;122323.03;;;146.94;nan
2401;BME280;1211;43.200;27.914;2023-03-16T07:25:57;122653.13;;;149.13;nan
2401;BME280;1211;43.200;27.914;2023-03-16T07:28:24;121752.09;;;143.71;nan
2401;BME280;1211;43.200;27.914;2023-03-16T07:30:52;120590.00;;;136.55;nan
2401;BME280;1211;43.200;27.914;2023-03-16T07:33:18;121191.94;;;139.40;nan
2401;BME280;1211;43.200;27.914;2023-03-16T07:35:47;120835.63;;;136.74;nan
2401;BME280;1211;43.200;27.914;2023-03-16T07:38:13;121737.56;;;142.86;nan
2401;BME280;1211;43.200;27.914;2023-03-16T07:40:40;121847.19;;;143.71;nan
2401;BME280;1211;43.200;27.914;2023-03-16T07:43:07;122101.03;;;145.68;nan
2401;BME280;1211;43.200;27.914;2023-03-16T07:45:34;122150.13;;;146.22;nan
2401;BME280;1211;43.200;27.914;2023-03-16T07:48:00;122537.09;;;148.27;nan
2401;BME280;1211;43.200;27.914;2023-03-16T07:50:27;122436.63;;;147.36;nan
2401;BME280;1211;43.200;27.914;2023-03-16T07:52:56;121859.88;;;143.71;nan
2401;BME280;1211;43.200;27.914;2023-03-16T07:55:23;121718.53;;;142.82;nan
2401;BME280;1211;43.200;27.914;2023-03-16T07:57:50;122096.69;;;145.61;nan
2401;BME280;1211;43.200;27.914;2023-03-16T08:00:17;120630.91;;;136.18;nan
2401;BME280;1211;43.200;27.914;2023-03-16T08:02:48;120523.53;;;135.01;nan
2401;BME280;1211;43.200;27.914;2023-03-16T08:05:15;120589.16;;;135.43;nan
2401;BME280;1211;43.200;27.914;2023-03-16T08:07:41;119532.59;;;128.80;nan
2401;BME280;1211;43.200;27.914;2023-03-16T08:10:10;119480.38;;;128.43;nan
2401;BME280;1211;43.200;27.914;2023-03-16T08:12:37;119471.13;;;128.48;nan
2401;BME280;1211;43.200;27.914;2023-03-16T08:15:04;119378.25;;;127.94;nan
2401;BME280;1211;43.200;27.914;2023-03-16T08:17:31;119442.69;;;127.39;nan
2401;BME280;1211;43.200;27.914;2023-03-16T08:19:58;119429.22;;;127.47;nan
2401;BME280;1211;43.200;27.914;2023-03-16T08:22:25;119392.53;;;127.86;nan
2401;BME280;1211;43.200;27.914;2023-03-16T08:24:52;119554.66;;;127.93;nan
2401;BME280;1211;43.200;27.914;2023-03-16T08:27:20;119416.69;;;127.27;nan
2401;BME280;1211;43.200;27.914;2023-03-16T08:37:05;119822.44;;;130.07;nan
2401;BME280;1211;43.200;27.914;2023-03-16T08:39:32;119945.31;;;130.55;nan
2401;BME280;1211;43.200;27.914;2023-03-16T08:41:59;119823.06;;;130.51;nan
2401;BME280;1211;43.200;27.914;2023-03-16T08:44:28;119670.59;;;129.19;nan
2401;BME280;1211;43.200;27.914;2023-03-16T08:46:54;119873.31;;;129.76;nan
2401;BME280;1211;43.200;27.914;2023-03-16T08:49:21;119776.66;;;129.94;nan
2401;BME280;1211;43.200;27.914;2023-03-16T08:54:14;119924.69;;;130.13;nan
2401;BME280;1211;43.200;27.914;2023-03-16T08:56:41;119946.47;;;130.26;nan
2401;BME280;1211;43.200;27.914;2023-03-16T08:59:08;119968.03;;;130.84;nan
2401;BME280;1211;43.200;27.914;2023-03-16T09:01:36;119927.28;;;130.31;nan
2401;BME280;1211;43.200;27.914;2023-03-16T09:04:04;121391.75;;;139.76;nan
2401;BME280;1211;43.200;27.914;2023-03-16T09:06:31;121472.25;;;140.38;nan
2401;BME280;1211;43.200;27.914;2023-03-16T09:08:57;121857.94;;;142.66;nan
2401;BME280;1211;43.200;27.914;2023-03-16T09:11:24;121452.59;;;140.42;nan
2401;BME280;1211;43.200;27.914;2023-03-16T09:13:54;121138.59;;;138.51;nan
2401;BME280;1211;43.200;27.914;2023-03-16T09:16:21;122609.03;;;147.53;nan
2401;BME280;1211;43.200;27.914;2023-03-16T09:18:51;122219.75;;;144.89;nan
2401;BME280;1211;43.200;27.914;2023-03-16T09:21:17;121445.34;;;139.97;nan
2401;BME280;1211;43.200;27.914;2023-03-16T09:23:44;121523.69;;;140.23;nan
2401;BME280;1211;43.200;27.914;2023-03-16T09:26:11;121852.44;;;142.43;nan
2401;BME280;1211;43.200;27.914;2023-03-16T09:28:39;122326.81;;;145.31;nan
2401;BME280;1211;43.200;27.914;2023-03-16T09:31:06;122774.88;;;147.99;nan
2401;BME280;1211;43.200;27.914;2023-03-16T09:33:33;123610.81;;;153.20;nan
2401;BME280;1211;43.200;27.914;2023-03-16T09:36:02;123056.75;;;149.63;nan
2401;BME280;1211;43.200;27.914;2023-03-16T09:38:29;122818.81;;;148.29;nan
2401;BME280;1211;43.200;27.914;2023-03-16T09:40:56;122590.66;;;146.42;nan
2401;BME280;1211;43.200;27.914;2023-03-16T09:43:40;120614.34;;;133.68;nan
2401;BME280;1211;43.200;27.914;2023-03-16T09:46:12;123780.06;;;154.23;nan
2401;BME280;1211;43.200;27.914;2023-03-16T09:48:40;123855.38;;;154.76;nan
2401;BME280;1211;43.200;27.914;2023-03-16T09:51:11;122344.66;;;145.38;nan
2401;BME280;1211;43.200;27.914;2023-03-16T09:53:40;122774.19;;;148.05;nan
2401;BME280;1211;43.200;27.914;2023-03-16T09:56:09;123399.50;;;151.92;nan
2401;BME280;1211;43.200;27.914;2023-03-16T09:58:36;123182.69;;;150.37;nan
2401;BME280;1211;43.200;27.914;2023-03-16T10:01:06;122517.50;;;146.14;nan
2401;BME280;1211;43.200;27.914;2023-03-16T10:03:39;123585.88;;;153.28;nan
2401;BME280;1211;43.200;27.914;2023-03-16T10:06:14;124031.00;;;155.86;nan
2401;BME280;1211;43.200;27.914;2023-03-16T10:08:42;122800.78;;;148.09;nan
2401;BME280;1211;43.200;27.914;2023-03-16T10:11:12;122555.56;;;146.22;nan
2401;BME280;1211;43.200;27.914;2023-03-16T10:13:43;123228.06;;;150.62;nan
2401;BME280;1211;43.200;27.914;2023-03-16T10:16:13;121632.50;;;140.46;nan
2401;BME280;1211;43.200;27.914;2023-03-16T10:18:43;121843.19;;;141.86;nan
2401;BME280;1211;43.200;27.914;2023-03-16T10:21:11;123379.81;;;151.34;nan
2401;BME280;1211;43.200;27.914;2023-03-16T10:23:40;123090.09;;;149.82;nan
2401;BME280;1211;43.200;27.914;2023-03-16T10:26:09;123060.94;;;149.63;nan
2401;BME280;1211;43.200;27.914;2023-03-16T10:28:37;122746.31;;;147.74;nan
2401;BME280;1211;43.200;27.914;2023-03-16T10:31:07;123217.34;;;150.53;nan
2401;BME280;1211;43.200;27.914;2023-03-16T10:33:35;123460.47;;;152.21;nan
2401;BME280;1211;43.200;27.914;2023-03-16T10:36:04;123466.78;;;152.12;nan
2401;BME280;1211;43.200;27.914;2023-03-16T10:38:41;121577.59;;;140.41;nan
2401;BME280;1211;43.200;27.914;2023-03-16T10:41:18;122013.78;;;142.63;nan
2401;BME280;1211;43.200;27.914;2023-03-16T10:43:48;122148.94;;;143.77;nan
2401;BME280;1211;43.200;27.914;2023-03-16T10:46:15;121916.22;;;142.35;nan
2401;BME280;1211;43.200;27.914;2023-03-16T10:48:49;122653.50;;;147.10;nan
2401;BME280;1211;43.200;27.914;2023-03-16T10:51:17;121291.84;;;138.59;nan
2401;BME280;1211;43.200;27.914;2023-03-16T10:53:47;121968.63;;;142.79;nan
2401;BME280;1211;43.200;27.914;2023-03-16T10:56:18;122554.66;;;146.86;nan
2401;BME280;1211;43.200;27.914;2023-03-16T10:58:46;122180.91;;;144.55;nan
2401;BME280;1211;43.200;27.914;2023-03-16T11:01:16;122790.66;;;147.94;nan
2401;BME280;1211;43.200;27.914;2023-03-16T11:03:46;121216.09;;;138.77;nan
2401;BME280;1211;43.200;27.914;2023-03-16T11:06:16;122963.50;;;149.05;nan
2401;BME280;1211;43.200;27.914;2023-03-16T11:08:44;122066.13;;;143.35;nan
2401;BME280;1211;43.200;27.914;2023-03-16T11:11:15;123228.63;;;150.65;nan
2401;BME280;1211;43.200;27.914;2023-03-16T11:13:44;123016.44;;;149.52;nan
2401;BME280;1211;43.200;27.914;2023-03-16T11:16:16;121554.06;;;140.73;nan
2401;BME280;1211;43.200;27.914;2023-03-16T11:18:47;123231.66;;;151.02;nan
2401;BME280;1211;43.200;27.914;2023-03-16T11:21:17;123490.28;;;152.53;nan
2401;BME280;1211;43.200;27.914;2023-03-16T11:23:46;123012.09;;;149.60;nan
2401;BME280;1211;43.200;27.914;2023-03-16T11:26:16;123247.41;;;151.58;nan
2401;BME280;1211;43.200;27.914;2023-03-16T11:28:46;122059.00;;;143.92;nan
2401;BME280;1211;43.200;27.914;2023-03-16T11:31:17;123140.78;;;150.67;nan
2401;BME280;1211;43.200;27.914;2023-03-16T11:33:46;122192.44;;;144.24;nan
2401;BME280;1211;43.200;27.914;2023-03-16T11:36:16;123719.47;;;153.93;nan
2401;BME280;1211;43.200;27.914;2023-03-16T11:38:47;123149.66;;;150.71;nan
2401;BME280;1211;43.200;27.914;2023-03-16T11:41:21;123190.78;;;150.82;nan
2401;BME280;1211;43.200;27.914;2023-03-16T11:43:50;123111.19;;;150.52;nan
2401;BME280;1211;43.200;27.914;2023-03-16T11:46:18;123085.09;;;150.71;nan
2401;BME280;1211;43.200;27.914;2023-03-16T11:48:50;123431.13;;;152.37;nan
2401;BME280;1211;43.200;27.914;2023-03-16T11:51:26;123203.13;;;150.99;nan
2401;BME280;1211;43.200;27.914;2023-03-16T11:53:59;123245.25;;;151.08;nan
2401;BME280;1211;43.200;27.914;2023-03-16T11:56:32;123293.38;;;151.04;nan
2401;BME280;1211;43.200;27.914;2023-03-16T11:59:20;123719.53;;;153.86;nan
2401;BME280;1211;43.200;27.914;2023-03-16T12:01:57;123514.41;;;152.38;nan
2401;BME280;1211;43.200;27.914;2023-03-16T12:04:39;123479.34;;;152.07;nan
2401;BME280;1211;43.200;27.914;2023-03-16T12:07:19;123609.41;;;152.86;nan
2401;BME280;1211;43.200;27.914;2023-03-16T12:09:53;123370.84;;;151.10;nan
2401;BME280;1211;43.200;27.914;2023-03-16T12:12:33;123384.56;;;151.50;nan
2401;BME280;1211;43.200;27.914;2023-03-16T12:15:07;123260.44;;;150.55;nan
2401;BME280;1211;43.200;27.914;2023-03-16T12:17:38;123277.75;;;150.59;nan
2401;BME280;1211;43.200;27.914;2023-03-16T12:20:10;123692.75;;;153.07;nan
2401;BME280;1211;43.200;27.914;2023-03-16T12:22:40;123579.38;;;152.10;nan
2401;BME280;1211;43.200;27.914;2023-03-16T12:25:11;123618.72;;;152.48;nan
2401;BME280;1211;43.200;27.914;2023-03-16T12:27:40;123740.34;;;153.33;nan
2401;BME280;1211;43.200;27.914;2023-03-16T12:30:17;123428.50;;;151.39;nan
2401;BME280;1211;43.200;27.914;2023-03-16T12:32:47;123144.78;;;149.43;nan
2401;BME280;1211;43.200;27.914;2023-03-16T12:35:25;123553.69;;;151.71;nan
2401;BME280;1211;43.200;27.914;2023-03-16T12:37:57;123330.00;;;150.27;nan
2401;BME280;1211;43.200;27.914;2023-03-16T12:40:29;123283.25;;;150.28;nan
2401;BME280;1211;43.200;27.914;2023-03-16T12:43:21;123278.09;;;150.07;nan
2401;BME280;1211;43.200;27.914;2023-03-16T12:45:55;123199.06;;;149.43;nan
2401;BME280;1211;43.200;27.914;2023-03-16T12:48:25;123194.09;;;149.42;nan
2401;BME280;1211;43.200;27.914;2023-03-16T12:50:55;123160.88;;;149.36;nan
2401;BME280;1211;43.200;27.914;2023-03-16T12:53:27;123217.34;;;149.90;nan
2401;BME280;1211;43.200;27.914;2023-03-16T12:55:54;123259.97;;;150.24;nan
2401;BME280;1211;43.200;27.914;2023-03-16T12:58:23;123184.00;;;149.99;nan
2401;BME280;1211;43.200;27.914;2023-03-16T13:00:55;123171.41;;;149.69;nan
2401;BME280;1211;43.200;27.914;2023-03-16T13:03:23;123177.19;;;149.49;nan
2401;BME280;1211;43.200;27.914;2023-03-16T13:05:50;122864.91;;;147.66;nan
2401;BME280;1211;43.200;27.914;2023-03-16T13:08:18;122809.91;;;147.11;nan
2401;BME280;1211;43.200;27.914;2023-03-16T13:11:02;122989.13;;;148.21;nan
2401;BME280;1211;43.200;27.914;2023-03-16T13:13:30;122917.06;;;147.84;nan
2401;BME280;1211;43.200;27.914;2023-03-16T13:16:02;122788.03;;;146.45;nan
2401;BME280;1211;43.200;27.914;2023-03-16T13:18:33;122874.16;;;146.87;nan
2401;BME280;1211;43.200;27.914;2023-03-16T13:21:01;122945.09;;;147.76;nan
2401;BME280;1211;43.200;27.914;2023-03-16T13:23:45;122881.75;;;147.35;nan
2401;BME280;1211;43.200;27.914;2023-03-16T13:26:14;122984.38;;;147.88;nan
2401;BME280;1211;43.200;27.914;2023-03-16T13:28:44;123207.91;;;149.40;nan
2401;BME280;1211;43.200;27.914;2023-03-16T13:31:19;123094.16;;;148.67;nan
2401;BME280;1211;43.200;27.914;2023-03-16T13:33:48;123120.56;;;148.88;nan
2401;BME280;1211;43.200;27.914;2023-03-16T13:36:18;123113.91;;;148.80;nan
2401;BME280;1211;43.200;27.914;2023-03-16T13:38:54;123005.25;;;148.06;nan
2401;BME280;1211;43.200;27.914;2023-03-16T13:41:21;123118.44;;;148.69;nan
2401;BME280;1211;43.200;27.914;2023-03-16T13:43:50;123098.13;;;148.69;nan
2401;BME280;1211;43.200;27.914;2023-03-16T13:46:17;123289.91;;;149.86;nan
2401;BME280;1211;43.200;27.914;2023-03-16T13:48:45;123273.50;;;149.89;nan
2401;BME280;1211;43.200;27.914;2023-03-16T13:51:13;123578.78;;;151.61;nan
2401;BME280;1211;43.200;27.914;2023-03-16T13:53:41;123432.94;;;150.89;nan
2401;BME280;1211;43.200;27.914;2023-03-16T13:56:11;123377.38;;;150.71;nan
2401;BME280;1211;43.200;27.914;2023-03-16T13:58:38;123386.88;;;150.42;nan
2401;BME280;1211;43.200;27.914;2023-03-16T14:01:13;123436.09;;;150.91;nan
2401;BME280;1211;43.200;27.914;2023-03-16T14:03:43;123348.84;;;150.04;nan
2401;BME280;1211;43.200;27.914;2023-03-16T14:06:21;123479.84;;;150.67;nan
2401;BME280;1211;43.200;27.914;2023-03-16T14:08:50;123391.88;;;150.49;nan
2401;BME280;1211;43.200;27.914;2023-03-16T14:11:18;123281.13;;;149.96;nan
2401;BME280;1211;43.200;27.914;2023-03-16T14:13:49;123287.81;;;150.11;nan
2401;BME280;1211;43.200;27.914;2023-03-16T14:16:19;123303.97;;;149.60;nan